This is the latest recevied weather packets stored in our database for station/object NC0S. If no packets are shown the sender has not sent any weather packets the latest 10 day(s).
| Time | Temp. | Humidity | Pressure | Rain* | Wind** | Luminosity | Snow |
|---|---|---|---|---|---|---|---|
| 1777834830 | 25.56° C | 39% | 1012.4 hPa | 0 mm | - | - | - |
| 1777833030 | 25° C | 39% | 1012.6 hPa | 0 mm | - | - | - |
| 1777832450 | 25° C | 39% | 1012.7 hPa | 0 mm | - | - | - |
| 1777830630 | 23.89° C | 41% | 1013.5 hPa | 0 mm | - | - | - |
| 1777827630 | 23.33° C | 41% | 1014.3 hPa | 0 mm | - | - | - |
| 1777825830 | 22.78° C | 44% | 1014.4 hPa | 0 mm | - | - | - |
| 1777819231 | 17.78° C | 47% | 1015.1 hPa | 0 mm | - | - | - |
| 1777815630 | 14.44° C | 50% | 1015.8 hPa | 0 mm | - | - | - |
| 1777815030 | 13.89° C | 50% | 1015.9 hPa | 0 mm | - | - | - |
| 1777813230 | 12.22° C | 52% | 1015.8 hPa | 0 mm | - | - | - |
| 1777810829 | 10° C | 55% | 1015.9 hPa | 0 mm | - | - | - |
| 1777810230 | 10° C | 55% | 1016 hPa | 0 mm | - | - | - |
| 1777809030 | 10° C | 53% | 1016.1 hPa | 0 mm | - | - | - |
| 1777806050 | 9.44° C | 54% | 1016 hPa | 0 mm | - | - | - |
| 1777804830 | 9.44° C | 54% | 1016 hPa | 0 mm | - | - | - |
| 1777803630 | 9.44° C | 56% | 1016.5 hPa | 0 mm | - | - | - |
| 1777800030 | 8.89° C | 59% | 1016.8 hPa | 0 mm | - | - | - |
| 1777798850 | 8.33° C | 61% | 1017.1 hPa | 0 mm | - | - | - |
| 1777796430 | 8.33° C | 60% | 1017.2 hPa | 0 mm | - | - | - |
| 1777795830 | 8.89° C | 60% | 1017.4 hPa | 0 mm | - | - | - |
| 1777795230 | 8.89° C | 59% | 1017.4 hPa | 0 mm | - | - | - |
| 1777794630 | 8.89° C | 58% | 1017.3 hPa | 0 mm | - | - | - |
| 1777791030 | 9.44° C | 55% | 1017.9 hPa | 0 mm | - | - | - |
| 1777790430 | 9.44° C | 55% | 1018.1 hPa | 0 mm | - | - | - |
| 1777787430 | 9.44° C | 55% | 1018.6 hPa | 0 mm | - | - | - |
* Rain latest hour (hover to see other rain measurements)
** Current wind speed in m/s (hover to see current wind gust speed)